createdAt,value
2019-05-28T00:01:57.789Z,5.87
2019-05-28T00:04:29.393Z,6.40
2019-05-28T00:07:00.857Z,5.50
2019-05-28T00:09:32.828Z,6.80
2019-05-28T00:12:04.432Z,6.17
2019-05-28T00:14:35.960Z,7.07
2019-05-28T00:17:07.445Z,7.83
2019-05-28T00:19:38.907Z,7.77
2019-05-28T00:22:10.671Z,7.60
2019-05-28T00:24:42.465Z,9.23
2019-05-28T00:27:14.021Z,6.87
2019-05-28T00:29:45.561Z,8.37
2019-05-28T00:32:16.993Z,9.30
2019-05-28T00:34:48.541Z,8.10
2019-05-28T00:37:20.044Z,8.70
2019-05-28T00:39:51.589Z,8.53
2019-05-28T00:42:23.070Z,8.17
2019-05-28T00:44:54.592Z,9.33
2019-05-28T00:47:26.037Z,8.47
2019-05-28T00:49:57.505Z,9.47
2019-05-28T00:52:28.991Z,9.03
2019-05-28T00:55:00.533Z,8.70
2019-05-28T00:57:32.215Z,9.20
2019-05-28T01:00:04.618Z,9.80
2019-05-28T01:02:36.172Z,9.83
2019-05-28T01:05:09.039Z,9.67
2019-05-28T01:07:40.455Z,9.07
2019-05-28T01:10:12.630Z,9.13
2019-05-28T01:12:44.821Z,9.43
2019-05-28T01:15:16.465Z,9.80
2019-05-28T01:17:47.979Z,8.50
2019-05-28T01:20:19.537Z,9.43
2019-05-28T01:22:50.969Z,8.50
2019-05-28T01:25:22.537Z,8.37
2019-05-28T01:27:54.305Z,7.83
2019-05-28T01:30:25.780Z,9.13
2019-05-28T01:32:57.277Z,9.63
2019-05-28T01:35:28.742Z,8.40
2019-05-28T01:38:00.164Z,8.57
2019-05-28T01:40:31.603Z,9.23
2019-05-28T01:43:03.029Z,9.13
2019-05-28T01:45:34.517Z,8.33
2019-05-28T01:48:05.953Z,10.27
2019-05-28T01:50:37.494Z,9.30
2019-05-28T01:53:08.995Z,8.73
2019-05-28T01:55:40.810Z,10.90
2019-05-28T01:58:12.261Z,10.77
2019-05-28T02:00:43.758Z,10.23
2019-05-28T02:03:15.490Z,9.53
2019-05-28T02:05:46.942Z,8.80
2019-05-28T02:08:18.372Z,9.93
2019-05-28T02:10:49.821Z,9.73
2019-05-28T02:13:21.257Z,9.53
2019-05-28T02:15:52.716Z,9.57
2019-05-28T02:18:24.121Z,10.00
2019-05-28T02:20:55.946Z,10.27
2019-05-28T02:23:27.373Z,10.43
2019-05-28T02:25:58.882Z,10.17
2019-05-28T02:28:30.309Z,10.10
2019-05-28T02:31:01.755Z,10.27
2019-05-28T02:33:33.255Z,11.20
2019-05-28T02:36:05.221Z,10.43
2019-05-28T02:38:36.704Z,10.97
2019-05-28T02:41:09.507Z,10.20
2019-05-28T02:43:40.994Z,11.53
2019-05-28T02:46:12.445Z,10.53
2019-05-28T02:48:43.887Z,10.60
2019-05-28T02:51:15.417Z,10.97
2019-05-28T02:53:47.514Z,11.03
2019-05-28T02:56:22.014Z,10.70
2019-05-28T02:58:55.979Z,11.40
2019-05-28T03:01:43.077Z,9.60
2019-05-28T03:04:03.510Z,9.87
2019-05-28T03:06:37.087Z,15.57
2019-05-28T03:09:08.603Z,14.97
2019-05-28T03:11:40.116Z,13.10
2019-05-28T03:14:11.621Z,12.07
2019-05-28T03:16:45.677Z,12.83
2019-05-28T03:19:18.276Z,12.87
2019-05-28T03:21:52.021Z,13.20
2019-05-28T03:24:25.174Z,13.07
2019-05-28T03:26:56.701Z,12.90
2019-05-28T03:29:28.697Z,12.27
2019-05-28T03:32:08.086Z,11.70
2019-05-28T03:34:33.253Z,13.17
2019-05-28T03:37:05.542Z,12.03
2019-05-28T03:39:39.393Z,12.30
2019-05-28T03:42:10.861Z,10.87
2019-05-28T03:44:42.328Z,12.47
2019-05-28T03:47:13.824Z,12.43
2019-05-28T03:49:45.281Z,13.00
2019-05-28T03:52:16.763Z,12.13
2019-05-28T03:54:48.208Z,13.63
2019-05-28T03:57:19.721Z,14.17
2019-05-28T03:59:51.347Z,11.40
2019-05-28T04:02:24.074Z,13.23
2019-05-28T04:04:55.947Z,18.80
2019-05-28T04:07:27.445Z,15.03
2019-05-28T04:09:58.867Z,14.50
2019-05-28T04:12:30.358Z,12.80
2019-05-28T04:15:01.799Z,13.30
2019-05-28T04:17:34.559Z,18.93
2019-05-28T04:20:07.329Z,16.57
2019-05-28T04:22:38.785Z,13.90
2019-05-28T04:25:10.371Z,14.07
2019-05-28T04:27:41.882Z,14.50
2019-05-28T04:30:14.298Z,15.10
2019-05-28T04:32:45.850Z,12.80
2019-05-28T04:35:17.339Z,12.93
2019-05-28T04:37:48.825Z,15.73
2019-05-28T04:40:20.413Z,13.53
2019-05-28T04:42:52.003Z,16.03
2019-05-28T04:45:23.514Z,15.57
2019-05-28T04:47:56.592Z,15.37
2019-05-28T04:50:28.076Z,13.10
2019-05-28T04:53:00.101Z,13.00
2019-05-28T04:55:32.717Z,12.67
2019-05-28T04:58:04.275Z,12.17
2019-05-28T05:00:35.794Z,16.53
2019-05-28T05:03:10.814Z,21.20
2019-05-28T05:05:42.361Z,23.63
2019-05-28T05:08:13.898Z,14.93
2019-05-28T05:10:45.459Z,12.90
2019-05-28T05:13:18.124Z,13.73
2019-05-28T05:15:49.649Z,16.43
2019-05-28T05:18:21.267Z,14.53
2019-05-28T05:20:52.761Z,18.53
2019-05-28T05:23:24.255Z,17.97
2019-05-28T05:25:55.825Z,13.67
2019-05-28T05:28:27.470Z,13.33
2019-05-28T05:30:58.919Z,13.53
2019-05-28T05:33:30.457Z,16.57
2019-05-28T05:36:01.882Z,13.57
2019-05-28T05:38:33.555Z,12.67
2019-05-28T05:41:05.031Z,12.30
2019-05-28T05:43:36.530Z,13.40
2019-05-28T05:46:08.308Z,13.87
2019-05-28T05:48:39.922Z,16.57
2019-05-28T05:51:11.360Z,14.13
2019-05-28T05:53:42.932Z,22.83
2019-05-28T05:56:14.452Z,18.43
2019-05-28T05:58:45.976Z,17.23
2019-05-28T06:01:17.496Z,13.97
2019-05-28T06:03:48.988Z,13.13
2019-05-28T06:06:20.494Z,12.63
2019-05-28T06:08:52.088Z,15.03
2019-05-28T06:11:25.005Z,20.90
2019-05-28T06:13:56.440Z,16.77
2019-05-28T06:16:27.912Z,13.90
2019-05-28T06:18:59.377Z,15.67
2019-05-28T06:21:31.086Z,13.33
2019-05-28T06:24:02.605Z,9.60
2019-05-28T06:26:34.044Z,12.83
2019-05-28T06:29:05.484Z,12.00
2019-05-28T06:31:38.423Z,10.60
2019-05-28T06:34:09.884Z,10.57
2019-05-28T06:36:41.426Z,10.77
2019-05-28T06:39:12.922Z,9.97
2019-05-28T06:41:44.380Z,10.27
2019-05-28T06:44:15.818Z,10.03
2019-05-28T06:46:47.725Z,9.57
2019-05-28T06:49:19.214Z,10.80
2019-05-28T06:51:50.666Z,8.53
2019-05-28T06:54:22.133Z,10.40
2019-05-28T06:56:53.585Z,9.53
2019-05-28T06:59:25.049Z,8.67
2019-05-28T07:01:56.473Z,9.13
2019-05-28T07:04:32.670Z,9.60
2019-05-28T07:07:01.012Z,10.07
2019-05-28T07:09:32.517Z,9.80
2019-05-28T07:12:04.064Z,9.43
2019-05-28T07:14:35.823Z,9.43
2019-05-28T07:17:07.601Z,9.83
2019-05-28T07:19:39.054Z,9.80
2019-05-28T07:22:10.528Z,10.37
2019-05-28T07:24:42.044Z,9.13
2019-05-28T07:27:14.248Z,8.60
2019-05-28T07:29:45.780Z,7.70
2019-05-28T07:32:17.295Z,8.47
2019-05-28T07:34:48.948Z,8.43
2019-05-28T07:37:20.505Z,8.63
2019-05-28T07:39:51.920Z,8.17
2019-05-28T07:42:32.775Z,7.67
2019-05-28T07:44:56.830Z,9.43
2019-05-28T07:47:28.245Z,9.77
2019-05-28T07:49:59.700Z,9.40
2019-05-28T07:52:31.210Z,8.10
2019-05-28T07:55:02.656Z,8.80
2019-05-28T07:57:34.144Z,8.20
2019-05-28T08:00:07.487Z,8.00
2019-05-28T08:02:39.056Z,7.03
2019-05-28T08:05:10.865Z,8.50
2019-05-28T08:07:42.353Z,12.30
2019-05-28T08:10:14.041Z,13.03
2019-05-28T08:12:45.590Z,9.47
2019-05-28T08:15:17.109Z,8.67
2019-05-28T08:17:48.649Z,6.60
2019-05-28T08:20:20.071Z,6.87
2019-05-28T08:22:51.562Z,6.83
2019-05-28T08:25:44.809Z,6.90
2019-05-28T08:27:56.229Z,6.90
2019-05-28T08:30:27.865Z,6.27
2019-05-28T08:32:59.453Z,6.77
2019-05-28T08:35:30.901Z,5.80
2019-05-28T08:38:02.361Z,7.03
2019-05-28T08:40:33.777Z,6.37
2019-05-28T08:43:05.476Z,6.27
2019-05-28T08:45:36.921Z,6.43
2019-05-28T08:48:08.487Z,7.27
2019-05-28T08:50:39.917Z,6.77
2019-05-28T08:53:11.550Z,7.93
2019-05-28T08:55:42.990Z,7.13
2019-05-28T08:58:14.486Z,6.93
2019-05-28T09:00:47.813Z,7.27
2019-05-28T09:03:19.315Z,7.30
2019-05-28T09:05:50.741Z,7.10
2019-05-28T09:08:37.906Z,7.50
2019-05-28T09:10:55.366Z,8.03
2019-05-28T09:13:26.812Z,13.27
2019-05-28T09:15:58.339Z,13.87
2019-05-28T09:18:29.845Z,14.27
2019-05-28T09:21:02.771Z,9.27
2019-05-28T09:23:34.215Z,10.30
2019-05-28T09:26:05.658Z,9.40
2019-05-28T09:28:37.234Z,10.00
2019-05-28T09:31:08.980Z,8.40
2019-05-28T09:33:40.875Z,9.13
2019-05-28T09:36:12.509Z,10.33
2019-05-28T09:38:44.008Z,9.83
2019-05-28T09:41:15.450Z,9.70
2019-05-28T09:43:46.924Z,9.37
2019-05-28T09:46:18.416Z,9.13
2019-05-28T09:48:49.991Z,13.00
2019-05-28T09:51:21.404Z,9.67
2019-05-28T09:53:52.870Z,7.60
2019-05-28T09:56:24.304Z,9.23
2019-05-28T09:58:56.157Z,9.10
2019-05-28T10:01:28.230Z,12.67
2019-05-28T10:03:59.678Z,16.37
2019-05-28T10:06:41.525Z,10.33
2019-05-28T10:09:11.815Z,9.90
2019-05-28T10:11:43.267Z,9.27
2019-05-28T10:14:14.755Z,10.73
2019-05-28T10:16:46.516Z,10.60
2019-05-28T10:19:18.027Z,9.00
2019-05-28T10:21:49.709Z,10.93
2019-05-28T10:24:21.175Z,13.90
2019-05-28T10:26:52.637Z,19.87
2019-05-28T10:29:24.182Z,10.80
2019-05-28T10:31:55.657Z,10.47
2019-05-28T10:34:28.902Z,11.93
2019-05-28T10:37:00.384Z,12.83
2019-05-28T10:39:31.833Z,12.40
2019-05-28T10:42:03.297Z,15.93
2019-05-28T10:44:34.774Z,11.00
2019-05-28T10:47:06.258Z,11.47
2019-05-28T10:49:37.698Z,13.43
2019-05-28T10:52:09.191Z,11.70
2019-05-28T10:54:40.733Z,8.20
2019-05-28T10:57:12.287Z,10.70
2019-05-28T10:59:43.733Z,8.97
2019-05-28T11:02:15.217Z,10.90
2019-05-28T11:04:46.757Z,8.63
2019-05-28T11:07:18.232Z,7.47
2019-05-28T11:09:49.670Z,6.87
2019-05-28T11:12:21.142Z,6.70
2019-05-28T11:14:52.598Z,7.03
2019-05-28T11:17:24.447Z,7.17
2019-05-28T11:19:55.951Z,6.23
2019-05-28T11:22:27.412Z,6.80
2019-05-28T11:24:59.025Z,6.80
2019-05-28T11:27:30.551Z,6.10
2019-05-28T11:30:02.058Z,9.93
2019-05-28T11:32:33.588Z,9.37
2019-05-28T11:35:06.089Z,8.03
2019-05-28T11:37:37.567Z,7.33
2019-05-28T11:40:09.160Z,6.23
2019-05-28T11:42:40.634Z,6.70
2019-05-28T11:45:15.621Z,6.83
2019-05-28T11:47:50.615Z,6.33
2019-05-28T11:50:21.879Z,6.67
2019-05-28T11:52:53.579Z,5.63
2019-05-28T11:55:25.202Z,5.03
2019-05-28T11:57:56.708Z,5.40
2019-05-28T12:00:29.787Z,4.83
2019-05-28T12:03:01.748Z,4.80
2019-05-28T12:05:33.270Z,4.30
2019-05-28T12:08:04.742Z,4.07
2019-05-28T12:10:36.190Z,4.30
2019-05-28T12:13:10.868Z,3.90
2019-05-28T12:15:41.882Z,3.33
2019-05-28T12:18:13.583Z,3.97
2019-05-28T12:20:45.021Z,3.30
2019-05-28T12:23:16.553Z,4.03
2019-05-28T12:25:48.038Z,3.37
2019-05-28T12:28:36.512Z,3.57
2019-05-28T12:30:52.541Z,3.63
2019-05-28T12:33:24.031Z,3.40
2019-05-28T12:35:56.100Z,3.03
2019-05-28T12:38:27.625Z,3.43
2019-05-28T12:40:59.294Z,3.80
2019-05-28T12:43:30.755Z,3.37
2019-05-28T12:46:02.247Z,5.27
2019-05-28T12:48:34.754Z,5.07
2019-05-28T12:51:06.217Z,3.83
2019-05-28T12:53:49.230Z,3.90
2019-05-28T12:56:10.805Z,3.63
2019-05-28T12:58:43.616Z,3.60
2019-05-28T13:01:15.273Z,3.33
2019-05-28T13:03:46.831Z,3.30
2019-05-28T13:06:19.461Z,4.30
2019-05-28T13:08:50.928Z,3.53
2019-05-28T13:11:22.466Z,3.57
2019-05-28T13:13:53.968Z,3.63
2019-05-28T13:16:25.395Z,4.87
2019-05-28T13:18:56.862Z,3.90
2019-05-28T13:21:28.373Z,3.77
2019-05-28T13:23:59.885Z,3.73
2019-05-28T13:26:31.763Z,4.10
2019-05-28T13:29:03.216Z,4.30
2019-05-28T13:31:34.745Z,3.50
2019-05-28T13:34:06.306Z,2.73
2019-05-28T13:36:37.784Z,2.87
2019-05-28T13:39:09.524Z,2.73
2019-05-28T13:41:41.002Z,3.10
2019-05-28T13:44:12.500Z,2.70
2019-05-28T13:46:44.322Z,3.47
2019-05-28T13:49:15.808Z,2.73
2019-05-28T13:51:47.464Z,2.70
2019-05-28T13:54:20.080Z,3.40
2019-05-28T13:56:51.541Z,2.97
2019-05-28T13:59:23.077Z,2.73
2019-05-28T14:01:54.484Z,2.90
2019-05-28T14:04:25.958Z,3.47
2019-05-28T14:06:57.533Z,3.20
2019-05-28T14:09:28.950Z,3.53
2019-05-28T14:12:00.509Z,3.43
2019-05-28T14:14:31.974Z,3.80
2019-05-28T14:17:03.585Z,3.60
2019-05-28T14:19:35.416Z,4.07
2019-05-28T14:22:07.246Z,3.87
2019-05-28T14:24:39.046Z,3.63
2019-05-28T14:27:10.482Z,3.87
2019-05-28T14:29:42.045Z,3.30
2019-05-28T14:32:13.512Z,4.13
2019-05-28T14:34:45.018Z,5.03
2019-05-28T14:37:16.682Z,3.93
2019-05-28T14:39:48.165Z,3.43
2019-05-28T14:42:19.638Z,4.90
2019-05-28T14:44:51.348Z,3.77
2019-05-28T14:47:23.411Z,3.90
2019-05-28T14:49:55.145Z,3.20
2019-05-28T14:52:26.721Z,3.37
2019-05-28T14:54:59.122Z,3.17
2019-05-28T14:57:30.612Z,3.23
2019-05-28T15:00:03.165Z,4.70
2019-05-28T15:02:35.414Z,3.97
2019-05-28T15:05:07.721Z,3.83
2019-05-28T15:07:39.796Z,3.27
2019-05-28T15:10:12.341Z,3.20
2019-05-28T15:12:44.254Z,3.30
2019-05-28T15:15:34.657Z,3.77
2019-05-28T15:17:51.165Z,3.83
2019-05-28T15:20:23.123Z,3.60
2019-05-28T15:22:54.670Z,3.50
2019-05-28T15:25:26.128Z,3.37
2019-05-28T15:27:57.657Z,3.20
2019-05-28T15:30:29.509Z,3.30
2019-05-28T15:33:01.062Z,2.80
2019-05-28T15:35:32.607Z,4.03
2019-05-28T15:38:04.637Z,3.10
2019-05-28T15:40:36.194Z,2.80
2019-05-28T15:43:07.846Z,2.60
2019-05-28T15:45:39.423Z,2.40
2019-05-28T15:48:12.557Z,2.23
2019-05-28T15:50:44.020Z,2.17
2019-05-28T15:53:15.673Z,2.37
2019-05-28T15:55:47.229Z,2.17
2019-05-28T15:58:19.101Z,2.00
2019-05-28T16:00:50.550Z,2.50
2019-05-28T16:03:22.034Z,2.30
2019-05-28T16:05:53.686Z,2.20
2019-05-28T16:08:25.496Z,2.17
2019-05-28T16:10:57.005Z,2.27
2019-05-28T16:13:28.555Z,2.60
2019-05-28T16:16:00.171Z,3.20
2019-05-28T16:18:31.657Z,2.73
2019-05-28T16:21:03.178Z,2.20
2019-05-28T16:23:34.741Z,2.67
2019-05-28T16:26:06.288Z,2.10
2019-05-28T16:28:37.721Z,2.13
2019-05-28T16:31:12.727Z,2.40
2019-05-28T16:33:42.277Z,2.67
2019-05-28T16:36:13.770Z,2.20
2019-05-28T16:38:45.305Z,2.40
2019-05-28T16:41:16.899Z,2.60
2019-05-28T16:43:48.389Z,2.60
2019-05-28T16:46:19.953Z,2.50
2019-05-28T16:48:51.491Z,2.70
2019-05-28T16:51:23.010Z,2.20
2019-05-28T16:53:54.919Z,2.73
2019-05-28T16:56:26.468Z,2.40
2019-05-28T16:58:58.060Z,2.43
2019-05-28T17:01:29.682Z,2.30
2019-05-28T17:04:01.238Z,2.60
2019-05-28T17:06:33.852Z,2.60
2019-05-28T17:09:07.525Z,2.37
2019-05-28T17:11:39.380Z,2.77
2019-05-28T17:14:11.094Z,2.80
2019-05-28T17:16:42.715Z,2.80
2019-05-28T17:19:14.330Z,2.70
2019-05-28T17:21:45.935Z,2.63
2019-05-28T17:24:17.558Z,2.73
2019-05-28T17:26:49.101Z,2.90
2019-05-28T17:29:20.678Z,3.77
2019-05-28T17:31:52.234Z,3.00
2019-05-28T17:34:23.813Z,3.43
2019-05-28T17:36:55.663Z,4.23
2019-05-28T17:39:27.249Z,3.50
2019-05-28T17:41:58.809Z,3.20
2019-05-28T17:44:30.329Z,2.80
2019-05-28T17:47:01.869Z,3.73
2019-05-28T17:49:33.453Z,2.63
2019-05-28T17:52:04.985Z,2.83
2019-05-28T17:54:37.573Z,3.63
2019-05-28T17:57:09.350Z,3.33
2019-05-28T17:59:41.020Z,3.20
2019-05-28T18:02:12.580Z,3.40
2019-05-28T18:04:44.200Z,3.03
2019-05-28T18:07:15.830Z,3.30
2019-05-28T18:09:47.408Z,3.60
2019-05-28T18:12:18.898Z,3.50
2019-05-28T18:14:50.488Z,3.47
2019-05-28T18:17:22.406Z,2.83
2019-05-28T18:19:54.051Z,3.37
2019-05-28T18:22:25.698Z,4.27
2019-05-28T18:24:57.232Z,3.83
2019-05-28T18:27:28.807Z,3.37
2019-05-28T18:30:01.820Z,3.40
2019-05-28T18:32:33.326Z,3.73
2019-05-28T18:35:05.349Z,3.40
2019-05-28T18:37:37.019Z,3.10
2019-05-28T18:40:10.479Z,3.27
2019-05-28T18:42:42.459Z,3.47
2019-05-28T18:45:14.972Z,3.30
2019-05-28T18:47:46.493Z,2.90
2019-05-28T18:50:19.399Z,3.80
2019-05-28T18:52:50.964Z,3.30
2019-05-28T18:55:23.623Z,3.00
2019-05-28T18:57:55.791Z,2.87
2019-05-28T19:00:27.384Z,3.27
2019-05-28T19:02:58.978Z,3.50
2019-05-28T19:05:30.594Z,3.20
2019-05-28T19:08:02.262Z,3.07
2019-05-28T19:10:33.871Z,3.20
2019-05-28T19:13:05.467Z,2.83
2019-05-28T19:15:37.623Z,2.77
2019-05-28T19:18:09.290Z,3.93
2019-05-28T19:20:40.859Z,3.00
2019-05-28T19:23:12.537Z,3.03
2019-05-28T19:25:45.387Z,2.70
2019-05-28T19:28:17.013Z,2.60
2019-05-28T19:30:50.632Z,3.40
2019-05-28T19:33:22.480Z,3.07
2019-05-28T19:35:55.535Z,3.60
2019-05-28T19:38:44.098Z,3.47
2019-05-28T19:41:01.083Z,3.63
2019-05-28T19:43:32.679Z,3.43
2019-05-28T19:46:04.248Z,3.80
2019-05-28T19:48:35.732Z,3.50
2019-05-28T19:51:07.317Z,3.53
2019-05-28T19:53:38.837Z,3.03
2019-05-28T19:56:10.438Z,3.13
2019-05-28T19:58:42.004Z,3.13
2019-05-28T20:01:13.694Z,3.73
2019-05-28T20:03:48.266Z,3.43
2019-05-28T20:06:19.838Z,4.00
2019-05-28T20:08:51.409Z,3.90
2019-05-28T20:11:22.946Z,3.53
2019-05-28T20:13:54.530Z,3.60
2019-05-28T20:16:26.081Z,3.60
2019-05-28T20:18:57.558Z,3.40
2019-05-28T20:21:30.746Z,3.27
2019-05-28T20:24:02.318Z,3.43
2019-05-28T20:26:34.314Z,3.57
2019-05-28T20:29:08.830Z,3.63
2019-05-28T20:31:39.087Z,3.73
2019-05-28T20:34:10.547Z,3.93
2019-05-28T20:36:42.446Z,3.70
2019-05-28T20:39:14.087Z,3.40
2019-05-28T20:41:45.609Z,3.43
2019-05-28T20:44:17.243Z,3.37
2019-05-28T20:46:48.746Z,3.30
2019-05-28T20:49:20.890Z,3.47
2019-05-28T20:51:52.402Z,3.93
2019-05-28T20:54:25.230Z,3.33
2019-05-28T20:56:57.936Z,4.00
2019-05-28T20:59:29.862Z,3.77
2019-05-28T21:02:01.469Z,3.00
2019-05-28T21:04:33.098Z,3.90
2019-05-28T21:07:04.554Z,4.10
2019-05-28T21:09:35.976Z,3.57
2019-05-28T21:12:07.573Z,3.97
2019-05-28T21:14:39.125Z,3.70
2019-05-28T21:17:11.339Z,4.00
2019-05-28T21:19:42.789Z,3.50
2019-05-28T21:22:26.134Z,3.47
2019-05-28T21:24:47.378Z,3.77
2019-05-28T21:27:18.938Z,3.20
2019-05-28T21:29:50.429Z,3.30
2019-05-28T21:32:22.173Z,3.67
2019-05-28T21:34:56.362Z,3.40
2019-05-28T21:37:27.950Z,4.40
2019-05-28T21:39:59.684Z,5.27
2019-05-28T21:42:31.265Z,2.83
2019-05-28T21:45:02.756Z,3.13
2019-05-28T21:47:34.294Z,4.37
2019-05-28T21:50:06.687Z,3.97
2019-05-28T21:52:38.163Z,4.07
2019-05-28T21:55:10.186Z,3.37
2019-05-28T21:57:41.667Z,4.17
2019-05-28T22:00:19.634Z,3.83
2019-05-28T22:02:52.719Z,4.50
2019-05-28T22:05:24.163Z,4.13
2019-05-28T22:07:55.618Z,4.20
2019-05-28T22:10:27.150Z,4.30
2019-05-28T22:13:15.827Z,3.70
2019-05-28T22:15:31.788Z,3.97
2019-05-28T22:18:04.241Z,4.10
2019-05-28T22:20:35.946Z,3.43
2019-05-28T22:23:08.698Z,4.10
2019-05-28T22:25:40.475Z,3.23
2019-05-28T22:28:12.051Z,3.60
2019-05-28T22:30:43.638Z,4.43
2019-05-28T22:33:15.219Z,4.33
2019-05-28T22:35:46.721Z,4.13
2019-05-28T22:38:18.294Z,3.57
2019-05-28T22:40:50.282Z,3.47
2019-05-28T22:43:31.135Z,3.60
2019-05-28T22:45:56.909Z,4.60
2019-05-28T22:48:28.669Z,3.30
2019-05-28T22:51:00.122Z,2.90
2019-05-28T22:53:31.649Z,3.43
2019-05-28T22:56:05.228Z,3.40
2019-05-28T22:58:36.601Z,2.93
2019-05-28T23:01:08.768Z,3.13
2019-05-28T23:03:40.506Z,2.80
2019-05-28T23:06:11.967Z,2.80
2019-05-28T23:08:43.489Z,2.63
2019-05-28T23:11:14.930Z,2.73
2019-05-28T23:13:47.311Z,2.93
2019-05-28T23:16:18.999Z,2.80
2019-05-28T23:21:38.068Z,2.47
2019-05-28T23:24:09.599Z,2.70
2019-05-28T23:26:41.120Z,2.87
2019-05-28T23:29:12.661Z,2.60
2019-05-28T23:31:44.167Z,2.47
2019-05-28T23:34:15.816Z,3.53
2019-05-28T23:36:47.337Z,2.53
2019-05-28T23:39:18.903Z,2.77
2019-05-28T23:41:50.387Z,2.50
2019-05-28T23:44:21.846Z,3.23
2019-05-28T23:46:53.309Z,2.50
2019-05-28T23:49:24.772Z,2.83
2019-05-28T23:51:56.338Z,2.57
2019-05-28T23:54:27.782Z,2.20
2019-05-28T23:56:59.282Z,2.40
2019-05-28T23:59:30.883Z,3.30
